Terminal Aerodrome Forecast
Issued by NWS Pueblo, CO

Home | Current Version | Previous Version | Text Only | Print | Product List | Glossary On
Versions: 1 2 3 4 5 6 7 8 9 10 11 12 13 14 15 16 17 18 19 20 21 22 23 24 25 26 27 28 29 30 31
000
FTUS45 KPUB 222337
TAFPUB
TAF
KPUB 222337Z 2300/2324 13014KT P6SM SCT110 SCT200
     FM230300 VRB06KT P6SM SCT120 SCT200
     FM231700 12008KT P6SM SCT250=

USA.gov is the U.S. government's official web portal to all federal, state and local government web resources and services.